sensor_id;sensor_type;location;lat;lon;timestamp;P1;durP1;ratioP1;P2;durP2;ratioP2
71969;SDS011;59838;52.152;5.436;2023-08-12T00:01:05;6.63;;;3.00;;
71969;SDS011;59838;52.152;5.436;2023-08-12T00:03:32;4.95;;;3.03;;
71969;SDS011;59838;52.152;5.436;2023-08-12T00:05:58;4.57;;;2.35;;
71969;SDS011;59838;52.152;5.436;2023-08-12T00:08:27;11.80;;;2.85;;
71969;SDS011;59838;52.152;5.436;2023-08-12T00:10:55;6.60;;;3.20;;
71969;SDS011;59838;52.152;5.436;2023-08-12T00:13:21;5.47;;;2.78;;
71969;SDS011;59838;52.152;5.436;2023-08-12T00:15:48;14.43;;;3.42;;
71969;SDS011;59838;52.152;5.436;2023-08-12T00:18:14;5.20;;;3.17;;
71969;SDS011;59838;52.152;5.436;2023-08-12T00:20:41;6.60;;;3.30;;
71969;SDS011;59838;52.152;5.436;2023-08-12T00:23:08;7.05;;;3.20;;
71969;SDS011;59838;52.152;5.436;2023-08-12T00:25:34;5.90;;;3.20;;
71969;SDS011;59838;52.152;5.436;2023-08-12T00:28:01;8.55;;;3.00;;
71969;SDS011;59838;52.152;5.436;2023-08-12T00:30:27;6.05;;;3.33;;
71969;SDS011;59838;52.152;5.436;2023-08-12T00:32:54;5.60;;;3.30;;
71969;SDS011;59838;52.152;5.436;2023-08-12T00:35:20;6.60;;;3.40;;
71969;SDS011;59838;52.152;5.436;2023-08-12T00:37:47;8.48;;;3.53;;
71969;SDS011;59838;52.152;5.436;2023-08-12T00:40:13;5.05;;;2.95;;
71969;SDS011;59838;52.152;5.436;2023-08-12T00:42:40;7.38;;;3.17;;
71969;SDS011;59838;52.152;5.436;2023-08-12T00:45:10;5.38;;;3.67;;
71969;SDS011;59838;52.152;5.436;2023-08-12T00:47:39;4.77;;;2.73;;
71969;SDS011;59838;52.152;5.436;2023-08-12T00:50:07;4.50;;;2.95;;
71969;SDS011;59838;52.152;5.436;2023-08-12T00:52:37;5.55;;;2.85;;
71969;SDS011;59838;52.152;5.436;2023-08-12T00:55:05;6.05;;;3.30;;
71969;SDS011;59838;52.152;5.436;2023-08-12T00:57:31;8.25;;;3.28;;
71969;SDS011;59838;52.152;5.436;2023-08-12T00:59:58;7.57;;;3.35;;
71969;SDS011;59838;52.152;5.436;2023-08-12T01:02:25;7.63;;;3.08;;
71969;SDS011;59838;52.152;5.436;2023-08-12T01:04:52;7.53;;;3.45;;
71969;SDS011;59838;52.152;5.436;2023-08-12T01:07:18;7.28;;;4.03;;
71969;SDS011;59838;52.152;5.436;2023-08-12T01:09:46;9.75;;;3.95;;
71969;SDS011;59838;52.152;5.436;2023-08-12T01:12:13;5.40;;;3.83;;
71969;SDS011;59838;52.152;5.436;2023-08-12T01:17:43;8.20;;;4.53;;
71969;SDS011;59838;52.152;5.436;2023-08-12T01:20:11;6.80;;;3.80;;
71969;SDS011;59838;52.152;5.436;2023-08-12T01:22:41;8.02;;;4.10;;
71969;SDS011;59838;52.152;5.436;2023-08-12T01:25:10;15.33;;;4.07;;
71969;SDS011;59838;52.152;5.436;2023-08-12T01:27:36;9.73;;;4.32;;
71969;SDS011;59838;52.152;5.436;2023-08-12T01:30:03;8.05;;;5.20;;
71969;SDS011;59838;52.152;5.436;2023-08-12T01:32:40;9.77;;;4.82;;
71969;SDS011;59838;52.152;5.436;2023-08-12T01:35:16;5.63;;;3.92;;
71969;SDS011;59838;52.152;5.436;2023-08-12T01:37:48;6.40;;;3.63;;
71969;SDS011;59838;52.152;5.436;2023-08-12T01:40:18;10.57;;;4.35;;
71969;SDS011;59838;52.152;5.436;2023-08-12T01:42:45;9.13;;;4.38;;
71969;SDS011;59838;52.152;5.436;2023-08-12T01:45:13;9.32;;;4.40;;
71969;SDS011;59838;52.152;5.436;2023-08-12T01:47:42;6.28;;;4.10;;
71969;SDS011;59838;52.152;5.436;2023-08-12T01:50:09;7.97;;;4.50;;
71969;SDS011;59838;52.152;5.436;2023-08-12T01:52:36;7.68;;;4.75;;
71969;SDS011;59838;52.152;5.436;2023-08-12T01:55:03;8.00;;;4.93;;
71969;SDS011;59838;52.152;5.436;2023-08-12T01:57:30;7.85;;;4.43;;
71969;SDS011;59838;52.152;5.436;2023-08-12T01:59:57;7.80;;;4.85;;
71969;SDS011;59838;52.152;5.436;2023-08-12T02:02:23;6.77;;;4.80;;
71969;SDS011;59838;52.152;5.436;2023-08-12T02:04:50;9.00;;;5.35;;
71969;SDS011;59838;52.152;5.436;2023-08-12T02:07:16;10.50;;;5.85;;
71969;SDS011;59838;52.152;5.436;2023-08-12T02:09:42;11.43;;;5.18;;
71969;SDS011;59838;52.152;5.436;2023-08-12T02:12:09;9.85;;;5.78;;
71969;SDS011;59838;52.152;5.436;2023-08-12T02:14:35;10.80;;;5.10;;
71969;SDS011;59838;52.152;5.436;2023-08-12T02:17:03;10.45;;;5.75;;
71969;SDS011;59838;52.152;5.436;2023-08-12T02:19:32;9.30;;;5.80;;
71969;SDS011;59838;52.152;5.436;2023-08-12T02:22:00;8.70;;;5.13;;
71969;SDS011;59838;52.152;5.436;2023-08-12T02:24:28;10.13;;;5.47;;
71969;SDS011;59838;52.152;5.436;2023-08-12T02:26:54;10.57;;;5.80;;
71969;SDS011;59838;52.152;5.436;2023-08-12T02:29:21;9.93;;;6.10;;
71969;SDS011;59838;52.152;5.436;2023-08-12T02:31:47;9.48;;;5.25;;
71969;SDS011;59838;52.152;5.436;2023-08-12T02:34:14;9.00;;;5.90;;
71969;SDS011;59838;52.152;5.436;2023-08-12T02:36:40;10.23;;;5.63;;
71969;SDS011;59838;52.152;5.436;2023-08-12T02:39:07;10.30;;;5.53;;
71969;SDS011;59838;52.152;5.436;2023-08-12T02:41:33;11.85;;;6.20;;
71969;SDS011;59838;52.152;5.436;2023-08-12T02:44:00;8.85;;;5.78;;
71969;SDS011;59838;52.152;5.436;2023-08-12T02:46:26;10.55;;;5.75;;
71969;SDS011;59838;52.152;5.436;2023-08-12T02:48:53;7.55;;;5.30;;
71969;SDS011;59838;52.152;5.436;2023-08-12T02:51:19;9.30;;;5.30;;
71969;SDS011;59838;52.152;5.436;2023-08-12T02:53:46;13.68;;;5.63;;
71969;SDS011;59838;52.152;5.436;2023-08-12T02:56:12;11.70;;;5.90;;
71969;SDS011;59838;52.152;5.436;2023-08-12T02:58:39;14.10;;;6.28;;
71969;SDS011;59838;52.152;5.436;2023-08-12T03:01:05;12.68;;;6.72;;
71969;SDS011;59838;52.152;5.436;2023-08-12T03:03:32;11.87;;;5.90;;
71969;SDS011;59838;52.152;5.436;2023-08-12T03:05:58;10.27;;;6.07;;
71969;SDS011;59838;52.152;5.436;2023-08-12T03:08:25;8.32;;;6.20;;
71969;SDS011;59838;52.152;5.436;2023-08-12T03:10:57;14.20;;;6.88;;
71969;SDS011;59838;52.152;5.436;2023-08-12T03:13:28;8.57;;;6.47;;
71969;SDS011;59838;52.152;5.436;2023-08-12T03:15:54;14.60;;;6.63;;
71969;SDS011;59838;52.152;5.436;2023-08-12T03:18:21;11.63;;;7.55;;
71969;SDS011;59838;52.152;5.436;2023-08-12T03:20:48;12.38;;;7.13;;
71969;SDS011;59838;52.152;5.436;2023-08-12T03:23:15;12.00;;;7.78;;
71969;SDS011;59838;52.152;5.436;2023-08-12T03:25:41;14.10;;;7.18;;
71969;SDS011;59838;52.152;5.436;2023-08-12T03:28:08;11.37;;;6.90;;
71969;SDS011;59838;52.152;5.436;2023-08-12T03:30:34;13.68;;;8.05;;
71969;SDS011;59838;52.152;5.436;2023-08-12T03:33:01;11.77;;;7.22;;
71969;SDS011;59838;52.152;5.436;2023-08-12T03:35:27;12.82;;;7.32;;
71969;SDS011;59838;52.152;5.436;2023-08-12T03:37:54;11.93;;;7.90;;
71969;SDS011;59838;52.152;5.436;2023-08-12T03:40:20;14.77;;;8.18;;
71969;SDS011;59838;52.152;5.436;2023-08-12T03:42:47;15.40;;;8.20;;
71969;SDS011;59838;52.152;5.436;2023-08-12T03:45:13;15.00;;;7.88;;
71969;SDS011;59838;52.152;5.436;2023-08-12T03:47:40;13.70;;;7.78;;
71969;SDS011;59838;52.152;5.436;2023-08-12T03:50:06;11.95;;;7.97;;
71969;SDS011;59838;52.152;5.436;2023-08-12T03:52:33;10.63;;;7.37;;
71969;SDS011;59838;52.152;5.436;2023-08-12T03:55:00;12.43;;;7.72;;
71969;SDS011;59838;52.152;5.436;2023-08-12T03:57:26;12.52;;;6.97;;
71969;SDS011;59838;52.152;5.436;2023-08-12T03:59:53;17.73;;;7.63;;
71969;SDS011;59838;52.152;5.436;2023-08-12T04:02:19;15.00;;;7.18;;
71969;SDS011;59838;52.152;5.436;2023-08-12T04:04:45;12.60;;;7.40;;
71969;SDS011;59838;52.152;5.436;2023-08-12T04:07:12;9.38;;;7.28;;
71969;SDS011;59838;52.152;5.436;2023-08-12T04:09:39;12.98;;;8.10;;
71969;SDS011;59838;52.152;5.436;2023-08-12T04:12:06;15.18;;;8.70;;
71969;SDS011;59838;52.152;5.436;2023-08-12T04:14:32;12.95;;;8.38;;
71969;SDS011;59838;52.152;5.436;2023-08-12T04:16:59;12.67;;;8.10;;
71969;SDS011;59838;52.152;5.436;2023-08-12T04:19:25;16.30;;;8.70;;
71969;SDS011;59838;52.152;5.436;2023-08-12T04:21:52;14.35;;;8.20;;
71969;SDS011;59838;52.152;5.436;2023-08-12T04:24:18;11.82;;;8.05;;
71969;SDS011;59838;52.152;5.436;2023-08-12T04:26:45;14.68;;;8.32;;
71969;SDS011;59838;52.152;5.436;2023-08-12T04:29:11;18.15;;;8.35;;
71969;SDS011;59838;52.152;5.436;2023-08-12T04:31:37;13.40;;;7.40;;
71969;SDS011;59838;52.152;5.436;2023-08-12T04:34:04;15.90;;;8.77;;
71969;SDS011;59838;52.152;5.436;2023-08-12T04:36:30;14.15;;;8.20;;
71969;SDS011;59838;52.152;5.436;2023-08-12T04:38:57;13.30;;;8.68;;
71969;SDS011;59838;52.152;5.436;2023-08-12T04:41:23;17.73;;;9.50;;
71969;SDS011;59838;52.152;5.436;2023-08-12T04:43:50;11.57;;;7.95;;
71969;SDS011;59838;52.152;5.436;2023-08-12T04:46:17;15.07;;;9.65;;
71969;SDS011;59838;52.152;5.436;2023-08-12T04:48:44;14.85;;;9.30;;
71969;SDS011;59838;52.152;5.436;2023-08-12T04:51:11;12.98;;;9.05;;
71969;SDS011;59838;52.152;5.436;2023-08-12T04:53:38;19.45;;;10.35;;
71969;SDS011;59838;52.152;5.436;2023-08-12T04:56:04;20.90;;;9.48;;
71969;SDS011;59838;52.152;5.436;2023-08-12T04:58:31;16.50;;;9.50;;
71969;SDS011;59838;52.152;5.436;2023-08-12T05:00:57;16.13;;;9.95;;
71969;SDS011;59838;52.152;5.436;2023-08-12T05:03:24;14.45;;;9.07;;
71969;SDS011;59838;52.152;5.436;2023-08-12T05:05:51;15.75;;;9.50;;
71969;SDS011;59838;52.152;5.436;2023-08-12T05:08:18;15.57;;;9.50;;
71969;SDS011;59838;52.152;5.436;2023-08-12T05:10:48;15.45;;;9.40;;
71969;SDS011;59838;52.152;5.436;2023-08-12T05:13:15;21.27;;;10.05;;
71969;SDS011;59838;52.152;5.436;2023-08-12T05:15:44;15.48;;;9.40;;
71969;SDS011;59838;52.152;5.436;2023-08-12T05:18:12;13.85;;;9.18;;
71969;SDS011;59838;52.152;5.436;2023-08-12T05:20:39;16.23;;;9.25;;
71969;SDS011;59838;52.152;5.436;2023-08-12T05:23:11;14.48;;;8.77;;
71969;SDS011;59838;52.152;5.436;2023-08-12T05:25:38;17.08;;;8.65;;
71969;SDS011;59838;52.152;5.436;2023-08-12T05:28:05;11.52;;;7.85;;
71969;SDS011;59838;52.152;5.436;2023-08-12T05:30:32;13.60;;;9.43;;
71969;SDS011;59838;52.152;5.436;2023-08-12T05:32:58;13.32;;;8.70;;
71969;SDS011;59838;52.152;5.436;2023-08-12T05:35:25;10.60;;;7.63;;
71969;SDS011;59838;52.152;5.436;2023-08-12T05:37:52;12.02;;;7.55;;
71969;SDS011;59838;52.152;5.436;2023-08-12T05:40:18;14.05;;;7.97;;
71969;SDS011;59838;52.152;5.436;2023-08-12T05:42:45;14.77;;;8.37;;
71969;SDS011;59838;52.152;5.436;2023-08-12T05:45:11;13.02;;;7.97;;
71969;SDS011;59838;52.152;5.436;2023-08-12T05:47:38;16.38;;;8.40;;
71969;SDS011;59838;52.152;5.436;2023-08-12T05:50:04;15.45;;;8.18;;
71969;SDS011;59838;52.152;5.436;2023-08-12T05:52:32;12.00;;;8.43;;
71969;SDS011;59838;52.152;5.436;2023-08-12T05:54:59;17.93;;;8.67;;
71969;SDS011;59838;52.152;5.436;2023-08-12T05:57:25;12.88;;;8.18;;
71969;SDS011;59838;52.152;5.436;2023-08-12T05:59:54;17.27;;;8.57;;
71969;SDS011;59838;52.152;5.436;2023-08-12T06:02:21;12.88;;;8.15;;
71969;SDS011;59838;52.152;5.436;2023-08-12T06:04:48;17.33;;;8.27;;
71969;SDS011;59838;52.152;5.436;2023-08-12T06:07:14;12.90;;;8.63;;
71969;SDS011;59838;52.152;5.436;2023-08-12T06:09:41;11.77;;;8.57;;
71969;SDS011;59838;52.152;5.436;2023-08-12T06:12:07;13.85;;;8.20;;
71969;SDS011;59838;52.152;5.436;2023-08-12T06:14:36;15.20;;;7.60;;
71969;SDS011;59838;52.152;5.436;2023-08-12T06:17:04;15.15;;;7.95;;
71969;SDS011;59838;52.152;5.436;2023-08-12T06:19:31;13.50;;;8.33;;
71969;SDS011;59838;52.152;5.436;2023-08-12T06:21:57;13.27;;;8.40;;
71969;SDS011;59838;52.152;5.436;2023-08-12T06:24:23;11.65;;;8.13;;
71969;SDS011;59838;52.152;5.436;2023-08-12T06:26:50;10.65;;;7.38;;
71969;SDS011;59838;52.152;5.436;2023-08-12T06:29:16;11.85;;;7.80;;
71969;SDS011;59838;52.152;5.436;2023-08-12T06:31:43;9.73;;;7.25;;
71969;SDS011;59838;52.152;5.436;2023-08-12T06:34:09;13.00;;;7.47;;
71969;SDS011;59838;52.152;5.436;2023-08-12T06:36:36;10.50;;;6.47;;
71969;SDS011;59838;52.152;5.436;2023-08-12T06:39:02;11.25;;;6.50;;
71969;SDS011;59838;52.152;5.436;2023-08-12T06:41:29;9.70;;;6.82;;
71969;SDS011;59838;52.152;5.436;2023-08-12T06:43:56;7.80;;;5.53;;
71969;SDS011;59838;52.152;5.436;2023-08-12T06:46:22;9.13;;;6.15;;
71969;SDS011;59838;52.152;5.436;2023-08-12T06:48:49;9.95;;;6.32;;
71969;SDS011;59838;52.152;5.436;2023-08-12T06:51:15;13.00;;;5.80;;
71969;SDS011;59838;52.152;5.436;2023-08-12T06:53:42;9.68;;;5.25;;
71969;SDS011;59838;52.152;5.436;2023-08-12T06:56:08;8.27;;;4.73;;
71969;SDS011;59838;52.152;5.436;2023-08-12T06:58:35;9.38;;;4.10;;
71969;SDS011;59838;52.152;5.436;2023-08-12T07:01:01;4.47;;;3.38;;
71969;SDS011;59838;52.152;5.436;2023-08-12T07:03:28;4.43;;;3.55;;
71969;SDS011;59838;52.152;5.436;2023-08-12T07:05:55;6.43;;;3.55;;
71969;SDS011;59838;52.152;5.436;2023-08-12T07:08:21;6.10;;;3.40;;
71969;SDS011;59838;52.152;5.436;2023-08-12T07:10:48;5.45;;;3.45;;
71969;SDS011;59838;52.152;5.436;2023-08-12T07:13:14;3.97;;;3.47;;
71969;SDS011;59838;52.152;5.436;2023-08-12T07:15:41;5.57;;;3.05;;
71969;SDS011;59838;52.152;5.436;2023-08-12T07:18:07;6.47;;;3.38;;
71969;SDS011;59838;52.152;5.436;2023-08-12T07:20:35;5.03;;;2.92;;
71969;SDS011;59838;52.152;5.436;2023-08-12T07:23:01;3.90;;;2.83;;
71969;SDS011;59838;52.152;5.436;2023-08-12T07:25:28;3.00;;;2.70;;
71969;SDS011;59838;52.152;5.436;2023-08-12T07:27:54;3.10;;;2.58;;
71969;SDS011;59838;52.152;5.436;2023-08-12T07:30:21;3.63;;;2.55;;
71969;SDS011;59838;52.152;5.436;2023-08-12T07:32:48;2.73;;;2.30;;
71969;SDS011;59838;52.152;5.436;2023-08-12T07:35:14;4.22;;;2.40;;
71969;SDS011;59838;52.152;5.436;2023-08-12T07:37:40;2.65;;;2.33;;
71969;SDS011;59838;52.152;5.436;2023-08-12T07:40:07;3.47;;;2.60;;
71969;SDS011;59838;52.152;5.436;2023-08-12T07:42:35;3.33;;;2.53;;
71969;SDS011;59838;52.152;5.436;2023-08-12T07:45:01;2.60;;;2.33;;
71969;SDS011;59838;52.152;5.436;2023-08-12T07:47:28;4.15;;;2.45;;
71969;SDS011;59838;52.152;5.436;2023-08-12T07:49:55;4.20;;;1.83;;
71969;SDS011;59838;52.152;5.436;2023-08-12T07:52:21;3.47;;;2.03;;
71969;SDS011;59838;52.152;5.436;2023-08-12T07:54:47;2.63;;;1.85;;
71969;SDS011;59838;52.152;5.436;2023-08-12T07:57:14;3.38;;;1.85;;
71969;SDS011;59838;52.152;5.436;2023-08-12T07:59:40;1.80;;;1.13;;
71969;SDS011;59838;52.152;5.436;2023-08-12T08:02:07;2.20;;;1.10;;
71969;SDS011;59838;52.152;5.436;2023-08-12T08:04:33;2.38;;;1.50;;
71969;SDS011;59838;52.152;5.436;2023-08-12T08:07:00;3.38;;;1.90;;
71969;SDS011;59838;52.152;5.436;2023-08-12T08:09:26;1.55;;;1.10;;
71969;SDS011;59838;52.152;5.436;2023-08-12T08:11:53;2.15;;;1.50;;
71969;SDS011;59838;52.152;5.436;2023-08-12T08:14:22;1.80;;;1.30;;
71969;SDS011;59838;52.152;5.436;2023-08-12T08:16:48;3.60;;;1.58;;
71969;SDS011;59838;52.152;5.436;2023-08-12T08:19:15;1.52;;;1.25;;
71969;SDS011;59838;52.152;5.436;2023-08-12T08:21:42;2.00;;;1.10;;
71969;SDS011;59838;52.152;5.436;2023-08-12T08:24:08;1.48;;;0.98;;
71969;SDS011;59838;52.152;5.436;2023-08-12T08:26:37;2.35;;;0.93;;
71969;SDS011;59838;52.152;5.436;2023-08-12T08:29:05;3.08;;;1.33;;
71969;SDS011;59838;52.152;5.436;2023-08-12T08:31:31;2.58;;;0.98;;
71969;SDS011;59838;52.152;5.436;2023-08-12T08:33:58;2.50;;;1.17;;
71969;SDS011;59838;52.152;5.436;2023-08-12T08:36:24;1.40;;;0.77;;
71969;SDS011;59838;52.152;5.436;2023-08-12T08:38:51;1.52;;;0.90;;
71969;SDS011;59838;52.152;5.436;2023-08-12T08:41:17;1.70;;;0.70;;
71969;SDS011;59838;52.152;5.436;2023-08-12T08:43:45;1.65;;;0.70;;
71969;SDS011;59838;52.152;5.436;2023-08-12T08:46:14;1.13;;;0.85;;
71969;SDS011;59838;52.152;5.436;2023-08-12T08:48:42;1.35;;;0.60;;
71969;SDS011;59838;52.152;5.436;2023-08-12T08:51:10;1.95;;;0.68;;
71969;SDS011;59838;52.152;5.436;2023-08-12T08:53:37;1.27;;;0.68;;
71969;SDS011;59838;52.152;5.436;2023-08-12T08:56:06;1.10;;;0.70;;
71969;SDS011;59838;52.152;5.436;2023-08-12T08:58:40;2.00;;;1.13;;
71969;SDS011;59838;52.152;5.436;2023-08-12T09:01:07;0.80;;;0.50;;
71969;SDS011;59838;52.152;5.436;2023-08-12T09:03:38;1.98;;;0.63;;
71969;SDS011;59838;52.152;5.436;2023-08-12T09:06:05;2.75;;;0.63;;
71969;SDS011;59838;52.152;5.436;2023-08-12T09:08:32;1.02;;;0.43;;
71969;SDS011;59838;52.152;5.436;2023-08-12T09:10:59;0.82;;;0.52;;
71969;SDS011;59838;52.152;5.436;2023-08-12T09:13:28;1.60;;;0.50;;
71969;SDS011;59838;52.152;5.436;2023-08-12T09:15:55;0.98;;;0.50;;
71969;SDS011;59838;52.152;5.436;2023-08-12T09:18:22;1.15;;;0.30;;
71969;SDS011;59838;52.152;5.436;2023-08-12T09:20:51;1.15;;;0.30;;
71969;SDS011;59838;52.152;5.436;2023-08-12T09:23:17;2.23;;;0.53;;
71969;SDS011;59838;52.152;5.436;2023-08-12T09:25:44;1.08;;;0.50;;
71969;SDS011;59838;52.152;5.436;2023-08-12T09:28:12;2.40;;;0.43;;
71969;SDS011;59838;52.152;5.436;2023-08-12T09:30:39;1.58;;;0.30;;
71969;SDS011;59838;52.152;5.436;2023-08-12T09:33:06;2.30;;;0.40;;
71969;SDS011;59838;52.152;5.436;2023-08-12T09:35:37;1.70;;;0.50;;
71969;SDS011;59838;52.152;5.436;2023-08-12T09:38:09;3.63;;;0.47;;
71969;SDS011;59838;52.152;5.436;2023-08-12T09:40:39;3.03;;;0.40;;
71969;SDS011;59838;52.152;5.436;2023-08-12T09:43:05;1.33;;;0.40;;
71969;SDS011;59838;52.152;5.436;2023-08-12T09:45:33;1.85;;;0.40;;
71969;SDS011;59838;52.152;5.436;2023-08-12T09:48:01;2.77;;;0.30;;
71969;SDS011;59838;52.152;5.436;2023-08-12T09:50:28;1.63;;;0.40;;
71969;SDS011;59838;52.152;5.436;2023-08-12T09:52:55;4.63;;;0.43;;
71969;SDS011;59838;52.152;5.436;2023-08-12T09:55:23;3.95;;;0.65;;
71969;SDS011;59838;52.152;5.436;2023-08-12T09:57:51;1.13;;;0.43;;
71969;SDS011;59838;52.152;5.436;2023-08-12T10:00:19;3.40;;;0.60;;
71969;SDS011;59838;52.152;5.436;2023-08-12T10:02:48;3.13;;;0.55;;
71969;SDS011;59838;52.152;5.436;2023-08-12T10:05:24;2.78;;;0.55;;
71969;SDS011;59838;52.152;5.436;2023-08-12T10:07:54;3.25;;;0.40;;
71969;SDS011;59838;52.152;5.436;2023-08-12T10:10:21;3.42;;;0.57;;
71969;SDS011;59838;52.152;5.436;2023-08-12T10:12:51;4.32;;;0.40;;
71969;SDS011;59838;52.152;5.436;2023-08-12T10:15:17;5.40;;;0.70;;
71969;SDS011;59838;52.152;5.436;2023-08-12T10:17:45;3.30;;;0.60;;
71969;SDS011;59838;52.152;5.436;2023-08-12T10:20:13;3.03;;;0.47;;
71969;SDS011;59838;52.152;5.436;2023-08-12T10:22:40;3.75;;;0.63;;
71969;SDS011;59838;52.152;5.436;2023-08-12T10:25:10;4.28;;;0.75;;
71969;SDS011;59838;52.152;5.436;2023-08-12T10:27:39;5.70;;;0.73;;
71969;SDS011;59838;52.152;5.436;2023-08-12T10:30:06;5.60;;;0.60;;
71969;SDS011;59838;52.152;5.436;2023-08-12T10:32:34;3.92;;;0.80;;
71969;SDS011;59838;52.152;5.436;2023-08-12T10:35:01;1.95;;;0.50;;
71969;SDS011;59838;52.152;5.436;2023-08-12T10:37:31;3.75;;;0.70;;
71969;SDS011;59838;52.152;5.436;2023-08-12T10:40:02;4.35;;;0.60;;
71969;SDS011;59838;52.152;5.436;2023-08-12T10:42:51;4.07;;;1.10;;
71969;SDS011;59838;52.152;5.436;2023-08-12T10:45:18;4.30;;;0.70;;
71969;SDS011;59838;52.152;5.436;2023-08-12T10:47:53;3.53;;;0.50;;
71969;SDS011;59838;52.152;5.436;2023-08-12T10:50:39;1.23;;;0.50;;
71969;SDS011;59838;52.152;5.436;2023-08-12T10:53:23;4.43;;;0.70;;
71969;SDS011;59838;52.152;5.436;2023-08-12T10:55:59;1.63;;;0.47;;
71969;SDS011;59838;52.152;5.436;2023-08-12T10:58:34;4.05;;;0.57;;
71969;SDS011;59838;52.152;5.436;2023-08-12T11:01:00;2.30;;;0.75;;
71969;SDS011;59838;52.152;5.436;2023-08-12T11:03:31;3.13;;;0.88;;
71969;SDS011;59838;52.152;5.436;2023-08-12T11:06:04;2.97;;;0.80;;
71969;SDS011;59838;52.152;5.436;2023-08-12T11:08:30;2.20;;;0.60;;
71969;SDS011;59838;52.152;5.436;2023-08-12T11:10:59;3.38;;;1.10;;
71969;SDS011;59838;52.152;5.436;2023-08-12T11:13:28;2.78;;;0.80;;
71969;SDS011;59838;52.152;5.436;2023-08-12T11:16:05;4.22;;;0.70;;
71969;SDS011;59838;52.152;5.436;2023-08-12T11:18:36;3.30;;;0.57;;
71969;SDS011;59838;52.152;5.436;2023-08-12T11:21:02;6.43;;;1.05;;
71969;SDS011;59838;52.152;5.436;2023-08-12T11:23:29;3.15;;;0.70;;
71969;SDS011;59838;52.152;5.436;2023-08-12T11:25:56;3.22;;;0.80;;
71969;SDS011;59838;52.152;5.436;2023-08-12T11:28:24;5.72;;;1.13;;
71969;SDS011;59838;52.152;5.436;2023-08-12T11:30:50;5.18;;;0.80;;
71969;SDS011;59838;52.152;5.436;2023-08-12T11:33:17;4.97;;;0.75;;
71969;SDS011;59838;52.152;5.436;2023-08-12T11:35:44;3.22;;;0.88;;
71969;SDS011;59838;52.152;5.436;2023-08-12T11:38:11;6.88;;;0.93;;
71969;SDS011;59838;52.152;5.436;2023-08-12T11:40:38;4.80;;;0.98;;
71969;SDS011;59838;52.152;5.436;2023-08-12T11:43:06;4.10;;;0.60;;
71969;SDS011;59838;52.152;5.436;2023-08-12T11:45:32;2.58;;;0.70;;
71969;SDS011;59838;52.152;5.436;2023-08-12T11:47:59;5.57;;;0.70;;
71969;SDS011;59838;52.152;5.436;2023-08-12T11:50:26;2.53;;;0.65;;
71969;SDS011;59838;52.152;5.436;2023-08-12T11:52:54;2.08;;;0.50;;
71969;SDS011;59838;52.152;5.436;2023-08-12T11:55:22;3.08;;;0.80;;
71969;SDS011;59838;52.152;5.436;2023-08-12T11:57:49;5.88;;;0.73;;
71969;SDS011;59838;52.152;5.436;2023-08-12T12:00:17;4.03;;;0.60;;
71969;SDS011;59838;52.152;5.436;2023-08-12T12:02:49;4.30;;;0.87;;
71969;SDS011;59838;52.152;5.436;2023-08-12T12:05:18;4.72;;;0.68;;
71969;SDS011;59838;52.152;5.436;2023-08-12T12:07:50;7.38;;;1.13;;
71969;SDS011;59838;52.152;5.436;2023-08-12T12:10:25;2.78;;;0.55;;
71969;SDS011;59838;52.152;5.436;2023-08-12T12:13:00;3.38;;;0.77;;
71969;SDS011;59838;52.152;5.436;2023-08-12T12:15:27;5.20;;;0.60;;
71969;SDS011;59838;52.152;5.436;2023-08-12T12:17:54;2.33;;;0.65;;
71969;SDS011;59838;52.152;5.436;2023-08-12T12:20:21;3.00;;;0.68;;
71969;SDS011;59838;52.152;5.436;2023-08-12T12:22:48;5.63;;;0.82;;
71969;SDS011;59838;52.152;5.436;2023-08-12T12:25:15;3.67;;;0.70;;
71969;SDS011;59838;52.152;5.436;2023-08-12T12:27:45;3.78;;;0.50;;
71969;SDS011;59838;52.152;5.436;2023-08-12T12:30:13;3.08;;;0.68;;
71969;SDS011;59838;52.152;5.436;2023-08-12T12:32:40;8.63;;;1.00;;
71969;SDS011;59838;52.152;5.436;2023-08-12T12:35:07;6.97;;;1.27;;
71969;SDS011;59838;52.152;5.436;2023-08-12T12:37:34;7.95;;;0.80;;
71969;SDS011;59838;52.152;5.436;2023-08-12T12:40:02;2.33;;;0.73;;
71969;SDS011;59838;52.152;5.436;2023-08-12T12:42:30;3.17;;;0.60;;
71969;SDS011;59838;52.152;5.436;2023-08-12T12:44:56;4.15;;;1.10;;
71969;SDS011;59838;52.152;5.436;2023-08-12T12:47:23;8.43;;;0.70;;
71969;SDS011;59838;52.152;5.436;2023-08-12T12:49:49;3.17;;;0.60;;
71969;SDS011;59838;52.152;5.436;2023-08-12T12:52:16;6.75;;;1.50;;
71969;SDS011;59838;52.152;5.436;2023-08-12T12:54:42;2.95;;;0.57;;
71969;SDS011;59838;52.152;5.436;2023-08-12T12:57:09;5.47;;;0.95;;
71969;SDS011;59838;52.152;5.436;2023-08-12T12:59:35;5.05;;;1.02;;
71969;SDS011;59838;52.152;5.436;2023-08-12T13:02:02;3.33;;;0.85;;
71969;SDS011;59838;52.152;5.436;2023-08-12T13:04:30;3.50;;;0.60;;
71969;SDS011;59838;52.152;5.436;2023-08-12T13:06:58;4.25;;;0.73;;
71969;SDS011;59838;52.152;5.436;2023-08-12T13:09:25;4.13;;;0.70;;
71969;SDS011;59838;52.152;5.436;2023-08-12T13:11:51;4.70;;;0.88;;
71969;SDS011;59838;52.152;5.436;2023-08-12T13:14:18;5.68;;;0.70;;
71969;SDS011;59838;52.152;5.436;2023-08-12T13:16:47;4.53;;;0.88;;
71969;SDS011;59838;52.152;5.436;2023-08-12T13:19:14;4.15;;;0.90;;
71969;SDS011;59838;52.152;5.436;2023-08-12T13:21:41;4.22;;;1.20;;
71969;SDS011;59838;52.152;5.436;2023-08-12T13:24:07;4.25;;;0.95;;
71969;SDS011;59838;52.152;5.436;2023-08-12T13:26:34;3.50;;;1.08;;
71969;SDS011;59838;52.152;5.436;2023-08-12T13:29:00;5.15;;;0.68;;
71969;SDS011;59838;52.152;5.436;2023-08-12T13:31:27;11.57;;;1.50;;
71969;SDS011;59838;52.152;5.436;2023-08-12T13:33:53;7.30;;;1.00;;
71969;SDS011;59838;52.152;5.436;2023-08-12T13:36:20;3.33;;;0.93;;
71969;SDS011;59838;52.152;5.436;2023-08-12T13:38:46;5.80;;;0.90;;
71969;SDS011;59838;52.152;5.436;2023-08-12T13:41:12;3.95;;;0.90;;
71969;SDS011;59838;52.152;5.436;2023-08-12T13:43:39;2.92;;;0.82;;
71969;SDS011;59838;52.152;5.436;2023-08-12T13:46:05;4.30;;;0.80;;
71969;SDS011;59838;52.152;5.436;2023-08-12T13:48:32;4.40;;;0.70;;
71969;SDS011;59838;52.152;5.436;2023-08-12T13:50:58;4.35;;;0.90;;
71969;SDS011;59838;52.152;5.436;2023-08-12T13:53:27;5.43;;;0.88;;
71969;SDS011;59838;52.152;5.436;2023-08-12T13:55:53;5.43;;;0.97;;
71969;SDS011;59838;52.152;5.436;2023-08-12T13:58:20;4.78;;;0.80;;
71969;SDS011;59838;52.152;5.436;2023-08-12T14:00:47;3.83;;;0.95;;
71969;SDS011;59838;52.152;5.436;2023-08-12T14:03:14;4.50;;;1.38;;
71969;SDS011;59838;52.152;5.436;2023-08-12T14:05:41;5.60;;;2.22;;
71969;SDS011;59838;52.152;5.436;2023-08-12T14:08:08;6.18;;;1.15;;
71969;SDS011;59838;52.152;5.436;2023-08-12T14:10:34;5.18;;;1.27;;
71969;SDS011;59838;52.152;5.436;2023-08-12T14:13:01;7.35;;;0.95;;
71969;SDS011;59838;52.152;5.436;2023-08-12T14:15:27;3.25;;;1.10;;
71969;SDS011;59838;52.152;5.436;2023-08-12T14:17:54;4.38;;;1.02;;
71969;SDS011;59838;52.152;5.436;2023-08-12T14:20:20;7.28;;;1.30;;
71969;SDS011;59838;52.152;5.436;2023-08-12T14:22:47;2.67;;;0.90;;
71969;SDS011;59838;52.152;5.436;2023-08-12T14:25:13;5.57;;;0.60;;
71969;SDS011;59838;52.152;5.436;2023-08-12T14:27:40;4.28;;;0.65;;
71969;SDS011;59838;52.152;5.436;2023-08-12T14:30:06;4.18;;;0.90;;
71969;SDS011;59838;52.152;5.436;2023-08-12T14:32:33;3.75;;;0.82;;
71969;SDS011;59838;52.152;5.436;2023-08-12T14:35:00;4.80;;;1.00;;
71969;SDS011;59838;52.152;5.436;2023-08-12T14:37:26;4.32;;;0.82;;
71969;SDS011;59838;52.152;5.436;2023-08-12T14:39:54;5.43;;;0.80;;
71969;SDS011;59838;52.152;5.436;2023-08-12T14:42:21;4.10;;;0.90;;
71969;SDS011;59838;52.152;5.436;2023-08-12T14:44:47;6.20;;;1.05;;
71969;SDS011;59838;52.152;5.436;2023-08-12T14:47:14;8.77;;;1.45;;